Hiwassee Observed Data For Previous 48 Hours

Caption
Day and Hour Reservoir Elevation (behind dam)* Tailwater Elevation (below dam)* Average Hourly Discharge*
4/22/2018 2 AM EDT 1,508.08 1,277.28 -999
4/22/2018 3 AM EDT 1,508.17 1,276.84 -999
4/22/2018 4 AM EDT 1,508.25 1,276.54 -999
4/22/2018 5 AM EDT 1,508.32 1,276.42 -999
4/22/2018 6 AM EDT 1,508.37 1,276.64 -999
4/22/2018 7 AM EDT 1,508.42 1,276.45 0
4/22/2018 8 AM EDT 1,508.42 1,276.21 0
4/22/2018 9 AM EDT 1,508.45 1,276.77 0
4/22/2018 10 AM EDT 1,508.48 1,276.50 0
4/22/2018 11 AM EDT 1,508.50 1,276.44 0
4/22/2018 12 PM EDT 1,508.50 1,276.26 0
4/22/2018 1 PM EDT 1,508.53 1,276.66 0
4/22/2018 2 PM EDT 1,508.55 1,276.48 0
4/22/2018 3 PM EDT 1,508.55 1,276.40 0
4/22/2018 4 PM EDT 1,508.58 1,276.30 0
4/22/2018 5 PM EDT 1,508.62 1,276.59 0
4/22/2018 6 PM EDT 1,508.64 1,276.46 0
4/22/2018 7 PM EDT 1,508.59 1,276.96 3,985
4/22/2018 8 PM EDT 1,508.54 1,277.18 4,401
4/22/2018 9 PM EDT 1,508.51 1,277.44 4,392
4/22/2018 10 PM EDT 1,508.44 1,277.61 4,394
4/22/2018 11 PM EDT 1,508.47 1,277.10 175
4/23/2018 12 AM EDT 1,508.47 1,277.65 0
4/23/2018 1 AM EDT 1,508.51 1,277.35 -999
4/23/2018 2 AM EDT 1,508.61 1,276.72 -999
4/23/2018 3 AM EDT 1,508.66 1,276.52 -999
4/23/2018 4 AM EDT 1,508.76 1,276.46 -999
4/23/2018 5 AM EDT 1,508.83 1,276.23 -999
4/23/2018 6 AM EDT 1,508.93 1,275.85 -999
4/23/2018 7 AM EDT 1,508.95 1,276.12 -999
4/23/2018 8 AM EDT 1,508.98 1,276.38 0
4/23/2018 9 AM EDT 1,509.06 1,276.33 0
4/23/2018 10 AM EDT 1,509.04 1,276.05 0
4/23/2018 11 AM EDT 1,509.11 1,276.21 0
4/23/2018 12 PM EDT 1,509.11 1,276.34 0
4/23/2018 1 PM EDT 1,509.15 1,276.19 0
4/23/2018 2 PM EDT 1,509.18 1,276.23 0
4/23/2018 3 PM EDT 1,509.20 1,276.19 0
4/23/2018 4 PM EDT 1,509.27 1,276.24 0
4/23/2018 5 PM EDT 1,509.27 1,276.31 0
4/23/2018 6 PM EDT 1,509.25 1,276.89 3,982
4/23/2018 7 PM EDT 1,509.22 1,277.03 4,406
4/23/2018 8 PM EDT 1,509.17 1,277.27 4,402
4/23/2018 9 PM EDT 1,509.12 1,277.50 4,400
4/23/2018 10 PM EDT 1,509.10 1,277.92 4,395
4/23/2018 11 PM EDT 1,509.10 1,277.15 177
4/24/2018 12 AM EDT 1,509.14 1,277.84 0
4/24/2018 1 AM EDT 1,509.17 1,277.89 0
4/24/2018 2 AM EDT 1,509.22 1,277.84 0
4/24/2018 3 AM EDT 1,509.24 1,277.67 0
4/24/2018 4 AM EDT 1,509.27 1,277.68 0
4/24/2018 5 AM EDT 1,509.34 1,278.04 0
4/24/2018 6 AM EDT 1,509.39 1,277.79 0
4/24/2018 7 AM EDT 1,509.47 1,277.83 0
4/24/2018 8 AM EDT 1,509.54 1,277.80 0
4/24/2018 9 AM EDT 1,509.59 1,278.07 0
4/24/2018 10 AM EDT 1,509.67 1,277.83 0
4/24/2018 11 AM EDT 1,509.74 1,277.90 0
4/24/2018 12 PM EDT 1,509.82 1,277.91 0
4/24/2018 1 PM EDT 1,509.91 1,278.10 0
4/24/2018 2 PM EDT 1,509.99 1,277.86 0
4/24/2018 3 PM EDT 1,510.08 1,277.94 0
4/24/2018 4 PM EDT 1,510.16 1,277.99 0
4/24/2018 5 PM EDT 1,510.25 1,278.04 0
4/24/2018 6 PM EDT 1,510.35 1,277.95 0
4/24/2018 7 PM EDT 1,510.45 1,277.99 0
4/24/2018 8 PM EDT 1,510.52 1,278.01 0
4/24/2018 9 PM EDT 1,510.59 1,278.04 0
4/24/2018 10 PM EDT 1,510.64 1,277.98 0

Elevations are in feet above sea level. Discharges are in cubic feet per second and are reported at the end of the hour.